Terminal Aerodrome Forecast
Issued by NWS

Home | Current Version | Previous Version | Text Only | Print | Product List | Glossary On
Versions: 1 2 3 4 5 6 7 8 9 10 11 12
181
FTUS42 TJSJ 172320
TAFJPS
TAF
TJPS 172320Z 1800/1824 07004KT P6SM FEW030
     FM181450 12011KT P6SM SCT030
      AMD NOT SKED TIL 180300=

USA.gov is the U.S. government's official web portal to all federal, state and local government web resources and services.